Flight Track Log - Related Links

Times and Time Zones

All times are in EDT time to prevent confusion due to time zone crossing. See the UAL4528 flight status page for this flight to view local times or setup timezone preferences in your user account.

Time Position Orientation Groundspeed Altitude Reporting Facility
EDT Latitude Longitude Course Direction KTS MPH feet Rate Location/Type
Tue 06:52:17 PM 29.9661 -95.3456 276° West 141 162 700  Level Houston Center
Tue 06:53:01 PM 29.9428 -95.3644 215° Southwest 192 221 1,800 1,868 Climbing Houston Center
Tue 06:54:03 PM 29.9089 -95.4303 239° Southwest 238 274 4,000 2,274 Climbing Houston Center
Tue 06:55:00 PM 30.0347 -95.8161 276° West  Level FlightAware Approximate
Tue 06:55:05 PM 29.9167 -95.5075 277° West 249 287 6,500  Level Houston Center
Tue 06:56:00 PM 30.0448 -95.9376 276° West  Level FlightAware Approximate
Tue 06:56:07 PM 29.9372 -95.5864 287° West 256 295 8,800  Level Houston Center
Tue 06:57:00 PM 30.0672 -96.0557 276° West  Level FlightAware Approximate
Tue 06:57:09 PM 29.9642 -95.6800 288° West 259 298 11,100  Level Houston Center
Tue 06:58:11 PM 29.9875 -95.7639 288° West 273 314 12,800 1,306 Climbing Houston Center
Tue 06:59:13 PM 30.0128 -95.8558 288° West 300 345 13,800 1,065 Climbing Houston Center
Tue 07:00:15 PM 30.0408 -95.9572 288° West 329 379 15,000 1,258 Climbing Houston Center
Tue 07:01:17 PM 30.0728 -96.0772 287° West 339 390 16,400 1,500 Climbing Houston Center
Tue 07:02:19 PM 30.0900 -96.1856 280° West 343 395 18,100 1,728 Climbing Houston Center
Tue 07:03:22 PM 30.1056 -96.2908 280° West 335 386 20,000 1,728 Climbing Houston Center
Tue 07:04:24 PM 30.1225 -96.3953 281° West 333 383 21,700 1,742 Climbing Houston Center
Tue 07:05:26 PM 30.1378 -96.5056 279° West 335 386 23,600 1,887 Climbing Houston Center
Tue 07:06:28 PM 30.1539 -96.6106 280° West 330 380 25,600 1,935 Climbing Houston Center
Tue 07:07:30 PM 30.1692 -96.7097 280° West 314 361 27,600 1,161 Climbing Houston Center
Tue 07:08:32 PM 30.1878 -96.8272 280° West 315 362 28,000 194 Climbing Houston Center
Tue 07:09:34 PM 30.2047 -96.9472 279° West 368 423 28,000  Level Houston Center
Tue 07:10:36 PM 30.2231 -97.0717 280° West 387 445 28,000 387 Level Houston Center
Tue 07:11:38 PM 30.2425 -97.2011 280° West 400 460 28,800 871 Climbing Houston Center
Tue 07:12:40 PM 30.2603 -97.3289 279° West 399 459 29,800 1,065 Climbing Houston Center
Tue 07:13:42 PM 30.2786 -97.4503 280° West 382 440 31,000 1,016 Climbing Houston Center
Tue 07:14:44 PM 30.2961 -97.5764 279° West 389 448 31,900 484 Climbing Houston Center
Tue 07:15:46 PM 30.3156 -97.7072 280° West 403 464 32,000 48 Climbing Houston Center
Tue 07:16:48 PM 30.3333 -97.8408 279° West 413 475 32,000  Level Houston Center
Tue 07:17:50 PM 30.3561 -97.9964 280° West 417 480 32,000  Level Houston Center
Tue 07:18:52 PM 30.4050 -98.1233 294° West 422 486 32,000  Level Houston Center
Tue 07:19:54 PM 30.4581 -98.2458 297° West 421 484 32,000  Level Houston Center
Tue 07:20:56 PM 30.5083 -98.3656 296° West 411 473 32,000  Level Houston Center
Tue 07:21:58 PM 30.5594 -98.4828 297° West 404 465 32,000  Level Houston Center
Tue 07:23:00 PM 30.6083 -98.6006 296° West 401 461 32,000  Level Houston Center
Tue 07:24:02 PM 30.6600 -98.7192 297° West 406 467 32,000  Level Houston Center
Tue 07:25:04 PM 30.7117 -98.8419 296° West 416 479 32,000  Level Houston Center
Tue 07:26:06 PM 30.7708 -98.9847 296° West 418 481 32,000  Level Houston Center
Tue 07:27:08 PM 30.8225 -99.1089 296° West 421 484 32,000  Level Houston Center
Tue 07:28:10 PM 30.8675 -99.2136 297° West 419 482 32,000  Level Houston Center
Tue 07:29:12 PM 30.9267 -99.3600 295° West 420 483 32,000  Level Houston Center
Tue 07:30:14 PM 30.9772 -99.4817 296° West 418 481 32,000  Level Houston Center
Tue 07:31:16 PM 31.0272 -99.6044 295° West 420 483 32,000  Level Houston Center
Tue 07:32:17 PM 31.0792 -99.7253 297° West 420 483 32,000  Level Houston Center
Tue 07:33:19 PM 31.1278 -99.8475 295° West 418 481 32,000  Level Houston Center
Tue 07:34:21 PM 31.1883 -99.9947 296° West 419 482 32,000  Level Houston Center
Tue 07:35:23 PM 31.2383 -100.1167 296° West 419 482 32,000  Level Houston Center
Tue 07:36:25 PM 31.2997 -100.2325 302° West 422 486 32,000  Level Houston Center
Tue 07:37:27 PM 31.3722 -100.3375 309° West 419 482 32,000  Level Houston Center
Tue 07:38:29 PM 31.4411 -100.4414 308° West 410 472 32,000  Level Houston Center
Tue 07:39:31 PM 31.5106 -100.5442 308° West 405 466 32,000  Level Houston Center
Tue 07:40:33 PM 31.5903 -100.6672 307° West 398 458 32,000  Level Houston Center
Tue 07:41:35 PM 31.6589 -100.7683 309° West 396 456 32,000  Level Houston Center
Tue 07:42:37 PM 31.7308 -100.8686 310° West 398 458 32,000  Level Houston Center
Tue 07:43:39 PM 31.7994 -100.9711 308° West 399 459 32,000  Level Houston Center
Tue 07:44:39 PM 31.8675 -101.0775 307° West 402 463 32,000  Level Fort Worth Center
Tue 07:45:39 PM 31.9375 -101.1833 308° West 402 463 32,000  Level Fort Worth Center
Tue 07:46:39 PM 32.0072 -101.2889 308° West 408 470 32,000 -50 Level Fort Worth Center
Tue 07:47:39 PM 32.0792 -101.3975 308° West 413 475 31,900  Descending Fort Worth Center
Tue 07:48:39 PM 32.1486 -101.5061 307° West 413 475 32,000 50 Climbing Fort Worth Center
Tue 07:49:39 PM 32.2242 -101.6247 307° West 413 475 32,000  Level Fort Worth Center
Tue 07:50:39 PM 32.2933 -101.7336 307° West 413 475 32,000  Level Fort Worth Center
Tue 07:51:39 PM 32.3628 -101.8428 307° West 413 475 32,000 -500 Level Fort Worth Center
Tue 07:52:39 PM 32.4339 -101.9519 308° West 418 481 31,000 -1,500 Descending Fort Worth Center
Tue 07:53:39 PM 32.5094 -102.0567 311° West 418 481 29,000 -2,000 Descending Fort Worth Center
Tue 07:54:39 PM 32.6250 -102.0947 344° North 401 461 27,000 -2,300 Descending Fort Worth Center
Tue 07:55:39 PM 32.7467 -102.0739 North 401 461 24,400 -2,612 Descending Fort Worth Center
Tue 07:56:04 PM 32.7867 -102.0686 North 434 499 23,300 -2,900 Descending Fort Worth Center
Tue 07:56:39 PM 32.8642 -102.0556 North 406 467 21,500 -3,091 Descending Fort Worth Center
Tue 07:57:10 PM 32.9208 -102.0486 North 409 471 19,900 -2,600 Descending Fort Worth Center
Tue 07:57:39 PM 32.9653 -102.0358 14° North 411 473 18,900 -2,239 Descending Fort Worth Center
Tue 07:58:17 PM 33.0428 -102.0250 North 408 470 17,400 -2,400 Descending Fort Worth Center
Tue 07:58:39 PM 33.0847 -102.0172 North 401 461 16,500 -2,459 Descending Fort Worth Center
Tue 07:59:18 PM 33.1497 -102.0083 North 392 451 14,900 -2,300 Descending Fort Worth Center
Tue 07:59:39 PM 33.1817 -101.9975 16° North 390 449 14,200 -2,100 Descending Fort Worth Center
Tue 08:00:18 PM 33.2569 -101.9892 North 381 438 12,800 -2,200 Descending Fort Worth Center
Tue 08:00:39 PM 33.2969 -101.9811 10° North 377 434 12,000 -2,066 Descending Fort Worth Center
Tue 08:01:19 PM 33.3619 -101.9722 North 353 406 10,700 -1,600 Descending Fort Worth Center
Tue 08:01:39 PM 33.3831 -101.9683 North 353 406 10,400 -1,475 Descending Fort Worth Center
Tue 08:02:20 PM 33.4542 -101.9594 North 327 376 9,200 -1,500 Descending Fort Worth Center
Tue 08:02:39 PM 33.4794 -101.9533 11° North 332 382 8,900 -900 Descending Fort Worth Center
Tue 08:03:20 PM 33.5361 -101.9464 North 283 326 8,300 -900 Descending Fort Worth Center
Tue 08:03:39 PM 33.5531 -101.9397 18° North 303 349 8,000 -1,770 Descending Fort Worth Center
Tue 08:04:21 PM 33.6097 -101.9303 North 266 306 6,500 -2,143 Descending Fort Worth Center

Login

Don't have an account? Register now (free) for customized features, flight alerts, and more!